Time;durP1;ratioP1;P1;durP2;ratioP2;P2;SDS_P1;SDS_P2;PMS_P1;PMS_P2;Temp;Humidity;BMP_temperature;BMP_pressure;BME280_temperature;BME280_humidity;BME280_pressure;Samples;Min_cycle;Max_cycle;Signal;HPM_P1;HPM_P2
2022/04/26 03:38:29;;;;;;;1.17;1.07;;;17.60;62.90;;;;;;5206979;28;20707;-60
2022/04/26 03:41:21;;;;;;;0.80;0.80;;;17.60;62.80;;;;;;5205506;28;20223;-60
2022/04/26 03:44:14;;;;;;;1.03;0.83;;;17.60;62.80;;;;;;5205808;28;20194;-60
2022/04/26 03:47:07;;;;;;;0.90;0.90;;;17.60;62.70;;;;;;5205460;28;20221;-59
2022/04/26 03:49:59;;;;;;;1.17;1.00;;;17.60;62.70;;;;;;5204499;28;20292;-60
2022/04/26 03:52:52;;;;;;;1.13;0.83;;;17.60;62.60;;;;;;5186206;28;20194;-60
2022/04/26 03:55:45;;;;;;;0.77;0.77;;;17.70;62.60;;;;;;5185717;28;20198;-60
2022/04/26 03:58:37;;;;;;;1.10;1.00;;;17.70;62.50;;;;;;5185939;28;20249;-61
2022/04/26 04:01:30;;;;;;;0.77;0.77;;;17.70;62.50;;;;;;5192287;28;20201;-60
2022/04/26 04:04:22;;;;;;;1.37;1.17;;;17.70;62.50;;;;;;5213271;28;20683;-60
2022/04/26 04:07:14;;;;;;;0.90;0.70;;;17.70;62.50;;;;;;5225957;28;20213;-61
2022/04/26 04:10:07;;;;;;;1.00;0.90;;;17.70;62.50;;;;;;5225977;28;20208;-61
2022/04/26 04:13:00;;;;;;;0.80;0.77;;;17.70;62.50;;;;;;5212663;28;20194;-60
2022/04/26 04:15:52;;;;;;;1.20;1.10;;;17.70;62.60;;;;;;5204954;28;20277;-61
2022/04/26 04:21:55;;;;;;;0.90;0.80;;;17.70;62.70;;;;;;5206112;28;20186;-60
2022/04/26 04:24:47;;;;;;;0.90;0.90;;;17.70;62.70;;;;;;5207711;28;20576;-60
2022/04/26 04:27:39;;;;;;;1.00;1.00;;;17.70;62.70;;;;;;5206340;28;20222;-60
2022/04/26 04:30:31;;;;;;;0.90;0.90;;;17.70;62.60;;;;;;5205485;28;20461;-60
2022/04/26 04:33:23;;;;;;;1.10;1.00;;;17.70;62.60;;;;;;5205653;28;20201;-59
2022/04/26 04:36:16;;;;;;;1.00;0.90;;;17.70;62.60;;;;;;5213081;28;20682;-60
2022/04/26 04:39:09;;;;;;;0.83;0.80;;;17.70;62.50;;;;;;5203645;28;20190;-60
2022/04/26 04:42:01;;;;;;;1.20;0.90;;;17.70;62.50;;;;;;5204474;28;20201;-60
2022/04/26 04:44:53;;;;;;;1.20;0.90;;;17.80;62.60;;;;;;5204532;28;20201;-60
2022/04/26 04:47:46;;;;;;;0.80;0.80;;;17.70;62.50;;;;;;5204500;28;20222;-60
2022/04/26 04:50:38;;;;;;;1.10;0.87;;;17.70;62.50;;;;;;5203855;28;20198;-60
2022/04/26 04:53:31;;;;;;;1.30;1.10;;;17.70;62.50;;;;;;5192740;28;20194;-60
2022/04/26 04:56:24;;;;;;;1.27;0.90;;;17.70;62.50;;;;;;5204206;28;20272;-60
2022/04/26 04:59:17;;;;;;;2.67;1.13;;;17.70;62.40;;;;;;5203657;28;20189;-61
2022/04/26 05:02:09;;;;;;;1.07;0.97;;;17.70;62.40;;;;;;5205250;28;20190;-60
2022/04/26 05:05:01;;;;;;;1.10;1.00;;;17.70;62.40;;;;;;5203686;28;20732;-60
2022/04/26 05:07:54;;;;;;;1.00;0.93;;;17.70;62.40;;;;;;5204113;28;20230;-60
2022/04/26 05:10:47;;;;;;;1.23;1.13;;;17.70;62.30;;;;;;5204016;28;20204;-60
2022/04/26 05:13:39;;;;;;;1.10;1.00;;;17.70;62.30;;;;;;5203490;28;20572;-60
2022/04/26 05:16:31;;;;;;;1.30;1.10;;;17.70;62.30;;;;;;5203980;28;20208;-60
2022/04/26 05:19:23;;;;;;;1.10;0.93;;;17.70;62.20;;;;;;5221448;28;20202;-59
2022/04/26 05:22:16;;;;;;;1.10;1.00;;;17.70;62.20;;;;;;5183834;28;20197;-60
2022/04/26 05:25:07;;;;;;;1.20;1.00;;;17.80;62.30;;;;;;5184408;28;20198;-60
2022/04/26 05:28:01;;;;;;;0.83;0.80;;;17.70;62.30;;;;;;5182351;28;20276;-60
2022/04/26 05:30:53;;;;;;;1.10;1.00;;;17.70;62.30;;;;;;5184426;28;20198;-60
2022/04/26 05:33:45;;;;;;;1.23;1.03;;;17.80;62.30;;;;;;5184747;28;20202;-60
2022/04/26 05:36:38;;;;;;;1.10;1.00;;;17.70;62.20;;;;;;5184498;28;20349;-60
2022/04/26 05:39:30;;;;;;;1.20;1.10;;;17.80;62.20;;;;;;5193590;28;20272;-60
2022/04/26 05:42:22;;;;;;;1.13;1.03;;;17.80;62.30;;;;;;5202600;28;20190;-60
2022/04/26 05:45:15;;;;;;;1.30;1.20;;;17.70;62.20;;;;;;5185322;28;20190;-61
2022/04/26 05:48:08;;;;;;;1.03;0.93;;;17.70;62.20;;;;;;5183821;28;20228;-61
2022/04/26 05:51:00;;;;;;;1.37;1.00;;;17.70;62.20;;;;;;5191828;28;20197;-60
2022/04/26 05:53:52;;;;;;;1.30;1.20;;;17.70;62.30;;;;;;5205143;28;20194;-60
2022/04/26 05:56:44;;;;;;;1.27;0.97;;;17.80;62.40;;;;;;5204428;28;20296;-60
2022/04/26 05:59:36;;;;;;;1.07;1.00;;;17.80;62.40;;;;;;5220725;28;20250;-60
2022/04/26 06:02:30;;;;;;;0.90;0.90;;;17.80;62.40;;;;;;5217973;28;20201;-60
2022/04/26 06:05:22;;;;;;;1.20;1.10;;;17.70;62.30;;;;;;5203461;28;20581;-61
2022/04/26 06:08:14;;;;;;;0.77;0.77;;;17.80;62.40;;;;;;5203110;28;20616;-61
2022/04/26 06:11:06;;;;;;;0.70;0.63;;;17.70;62.30;;;;;;5202046;28;20193;-62
2022/04/26 06:13:59;;;;;;;0.87;0.87;;;17.70;62.10;;;;;;5203829;28;20194;-62
2022/04/26 06:16:51;;;;;;;0.93;0.93;;;17.70;62.30;;;;;;5183519;28;20203;-62
2022/04/26 06:19:44;;;;;;;1.70;1.33;;;17.70;62.30;;;;;;5184288;28;20194;-62
2022/04/26 06:22:36;;;;;;;1.00;0.90;;;17.70;62.40;;;;;;5190310;28;20649;-61
2022/04/26 06:25:28;;;;;;;1.47;1.37;;;17.70;62.30;;;;;;5202310;28;20208;-62
2022/04/26 06:28:20;;;;;;;1.90;1.30;;;17.70;62.20;;;;;;5195409;28;20221;-62
2022/04/26 06:31:12;;;;;;;2.03;1.47;;;17.70;62.00;;;;;;5202351;28;20271;-61
2022/04/26 06:34:04;;;;;;;1.40;1.30;;;17.70;61.80;;;;;;5203768;28;20206;-62
2022/04/26 06:36:58;;;;;;;0.93;0.90;;;17.70;61.90;;;;;;5202723;28;20603;-61
2022/04/26 06:39:50;;;;;;;1.53;1.27;;;17.70;61.60;;;;;;5206103;28;20573;-62
2022/04/26 06:42:42;;;;;;;1.37;1.27;;;17.70;61.70;;;;;;5207458;28;20198;-61
2022/04/26 06:45:34;;;;;;;3.70;1.47;;;17.70;61.60;;;;;;5206889;28;20482;-62
2022/04/26 06:48:27;;;;;;;2.47;1.40;;;17.70;61.60;;;;;;5206616;28;20217;-63
2022/04/26 06:51:19;;;;;;;2.20;1.27;;;17.70;61.60;;;;;;5197546;28;20193;-62
2022/04/26 06:54:12;;;;;;;1.60;1.50;;;17.70;61.40;;;;;;5208560;28;20200;-62
2022/04/26 06:57:05;;;;;;;2.28;1.63;;;17.70;61.40;;;;;;5205648;28;20440;-62
2022/04/26 06:59:57;;;;;;;10.90;2.43;;;17.80;60.90;;;;;;5205843;28;20194;-62
2022/04/26 07:02:49;;;;;;;8.00;2.23;;;17.80;60.50;;;;;;5207086;28;20200;-62
2022/04/26 07:05:42;;;;;;;5.93;2.30;;;17.80;60.50;;;;;;5206364;28;20667;-61
2022/04/26 07:08:34;;;;;;;18.27;2.70;;;17.80;60.00;;;;;;5205712;28;20227;-62
2022/04/26 07:11:27;;;;;;;9.48;2.45;;;17.80;59.80;;;;;;5205226;28;20432;-61
2022/04/26 07:14:19;;;;;;;7.55;2.20;;;17.80;60.00;;;;;;5205341;28;20410;-61
2022/04/26 07:17:11;;;;;;;6.03;1.80;;;17.90;59.90;;;;;;5206009;28;20221;-61
2022/04/26 07:20:04;;;;;;;4.10;1.77;;;17.90;59.40;;;;;;5206824;28;20198;-63
2022/04/26 07:22:57;;;;;;;4.93;1.63;;;17.90;59.40;;;;;;5205977;28;20197;-64
2022/04/26 07:25:51;;;;;;;9.20;2.00;;;17.90;60.30;;;;;;5205767;28;20205;-63
2022/04/26 07:28:45;;;;;;;5.60;1.97;;;17.90;60.50;;;;;;5207199;23;20887;-69
2022/04/26 07:31:38;;;;;;;4.20;1.67;;;17.90;60.80;;;;;;5184264;28;20203;-69
2022/04/26 07:34:29;;;;;;;3.42;1.70;;;17.90;60.90;;;;;;5177522;28;21051;-69
2022/04/26 07:37:22;;;;;;;3.27;1.63;;;17.90;60.70;;;;;;5174515;28;20187;-69
2022/04/26 07:40:14;;;;;;;2.57;1.70;;;17.90;60.90;;;;;;5186390;28;20632;-69
2022/04/26 07:43:06;;;;;;;3.30;1.50;;;17.90;61.00;;;;;;5176748;28;20815;-69
2022/04/26 07:46:00;;;;;;;2.67;1.60;;;17.90;61.10;;;;;;5184462;28;20736;-69
2022/04/26 07:48:54;;;;;;;2.40;1.57;;;17.90;61.10;;;;;;5184342;28;20267;-69
2022/04/26 07:51:46;;;;;;;2.50;1.50;;;17.90;61.30;;;;;;5184712;28;20719;-69
2022/04/26 07:54:38;;;;;;;4.27;1.50;;;17.90;61.40;;;;;;5186225;28;20637;-69
2022/04/26 07:57:30;;;;;;;2.30;1.47;;;17.80;61.30;;;;;;5185317;28;20256;-69
2022/04/26 08:00:22;;;;;;;2.47;1.30;;;17.80;61.40;;;;;;5185636;28;20281;-69
2022/04/26 08:03:16;;;;;;;3.70;1.37;;;17.80;61.50;;;;;;5185009;28;20764;-69
2022/04/26 08:06:09;;;;;;;1.53;1.20;;;17.80;61.50;;;;;;5182244;28;20237;-69
2022/04/26 08:09:01;;;;;;;1.43;1.27;;;17.80;61.50;;;;;;5183168;28;20241;-68
2022/04/26 08:11:53;;;;;;;2.83;1.40;;;17.80;61.50;;;;;;5179710;28;20213;-68
2022/04/26 08:14:45;;;;;;;2.70;1.37;;;17.80;61.60;;;;;;5183541;28;20703;-69
2022/04/26 08:17:37;;;;;;;1.63;1.23;;;17.80;61.50;;;;;;5184711;28;20190;-70
2022/04/26 08:20:31;;;;;;;1.70;1.23;;;17.80;61.50;;;;;;5184117;28;20346;-69
2022/04/26 08:23:23;;;;;;;2.80;1.30;;;17.80;61.50;;;;;;5183546;28;20272;-69
2022/04/26 08:29:25;;;;;;;1.97;1.43;;;17.80;61.60;;;;;;5199821;28;20205;-69
2022/04/26 08:32:17;;;;;;;2.17;1.30;;;17.70;61.70;;;;;;5204002;28;20209;-69
2022/04/26 08:35:11;;;;;;;1.40;1.27;;;17.80;61.90;;;;;;5198895;28;20733;-69
2022/04/26 08:38:05;;;;;;;2.63;1.50;;;17.70;61.80;;;;;;5202547;28;20194;-69
2022/04/26 08:40:57;;;;;;;2.23;1.37;;;17.70;61.90;;;;;;5200753;28;20228;-70
2022/04/26 08:43:49;;;;;;;2.33;1.10;;;17.70;62.00;;;;;;5202573;28;20217;-69
2022/04/26 08:53:01;;;;;;;1.60;1.20;;;17.70;62.00;;;;;;5203841;28;20267;-69
2022/04/26 08:55:56;;;;;;;2.43;1.47;;;17.70;62.10;;;;;;5211917;28;20201;-69
2022/04/26 08:58:50;;;;;;;3.53;1.70;;;17.70;62.10;;;;;;5208511;28;20340;-69
2022/04/26 09:01:42;;;;;;;2.53;1.50;;;17.70;62.10;;;;;;5193896;28;20842;-70
2022/04/26 09:04:34;;;;;;;1.90;1.40;;;17.70;62.20;;;;;;5203767;28;20483;-69
2022/04/26 09:07:31;;;;;;;3.00;1.30;;;17.70;62.30;;;;;;5206893;28;20371;-69
2022/04/26 09:10:23;;;;;;;1.20;1.10;;;17.70;62.20;;;;;;5213358;28;20723;-69
2022/04/26 09:13:20;;;;;;;3.20;1.40;;;17.70;62.30;;;;;;5207728;28;20217;-69
2022/04/26 09:16:18;;;;;;;1.33;0.87;;;17.70;62.20;;;;;;5209519;28;20190;-70
2022/04/26 09:19:10;;;;;;;2.23;1.20;;;17.60;62.20;;;;;;5205115;28;20194;-69
2022/04/26 09:22:02;;;;;;;1.33;1.10;;;17.60;62.30;;;;;;5203038;28;20201;-69
2022/04/26 09:24:56;;;;;;;1.40;1.30;;;17.70;62.90;;;;;;5203255;28;20257;-69
2022/04/26 09:27:48;;;;;;;1.20;1.10;;;17.60;62.20;;;;;;5214272;28;20213;-69
2022/04/26 09:30:41;;;;;;;1.27;0.97;;;17.60;62.30;;;;;;5203410;28;20746;-69
2022/04/26 09:33:38;;;;;;;1.37;1.20;;;17.60;62.30;;;;;;5207693;28;20294;-69
2022/04/26 09:36:31;;;;;;;1.30;1.17;;;17.70;62.40;;;;;;5206136;28;20198;-69
2022/04/26 09:39:25;;;;;;;1.10;1.00;;;17.60;62.30;;;;;;5186559;28;20193;-70
2022/04/26 09:42:29;;;;;;;1.30;1.20;;;17.70;62.50;;;;;;5203931;28;20202;-69
2022/04/26 09:45:21;;;;;;;1.20;1.10;;;17.70;62.50;;;;;;5204341;28;20197;-69
2022/04/26 09:48:25;;;;;;;1.73;1.20;;;17.70;62.60;;;;;;5203776;28;20213;-69
2022/04/26 09:51:17;;;;;;;0.97;0.90;;;17.60;62.50;;;;;;5202455;28;20296;-70
2022/04/26 09:54:10;;;;;;;1.80;1.00;;;17.70;62.60;;;;;;5215151;28;20299;-69
2022/04/26 09:57:06;;;;;;;1.63;1.20;;;17.70;62.60;;;;;;5202427;28;20204;-69
2022/04/26 09:59:59;;;;;;;2.30;1.30;;;17.70;62.60;;;;;;5203920;28;20360;-70
2022/04/26 10:02:54;;;;;;;1.23;1.13;;;17.70;62.60;;;;;;5208972;28;20276;-69
2022/04/26 10:05:50;;;;;;;1.10;1.07;;;17.70;62.60;;;;;;5211798;28;20241;-70
2022/04/26 10:08:42;;;;;;;1.40;1.10;;;17.80;62.60;;;;;;5203630;28;20587;-70
2022/04/26 10:11:35;;;;;;;1.13;0.90;;;17.70;62.60;;;;;;5203606;28;20285;-70
2022/04/26 10:14:29;;;;;;;1.17;1.00;;;17.70;62.60;;;;;;5214441;28;20292;-69
2022/04/26 10:17:21;;;;;;;2.77;1.03;;;17.80;62.70;;;;;;5203623;28;20273;-69
2022/04/26 10:20:41;;;;;;;1.33;0.80;;;17.70;62.60;;;;;;5210246;28;20208;-70
2022/04/26 10:24:13;;;;;;;1.10;1.00;;;17.80;63.20;;;;;;5208870;28;20764;-70
2022/04/26 10:27:19;;;;;;;1.27;1.00;;;17.80;62.70;;;;;;5184478;28;20193;-70
2022/04/26 10:30:11;;;;;;;0.97;0.90;;;17.80;62.70;;;;;;5213956;28;20567;-70
2022/04/26 10:33:35;;;;;;;1.10;1.00;;;17.80;62.70;;;;;;5209759;28;20198;-70
2022/04/26 10:36:34;;;;;;;1.07;0.73;;;17.80;62.70;;;;;;5209315;28;20671;-70
2022/04/26 10:39:49;;;;;;;1.03;0.93;;;17.80;62.70;;;;;;5203177;28;20213;-70
2022/04/26 10:42:41;;;;;;;0.90;0.70;;;17.80;62.70;;;;;;5205845;28;20810;-70
2022/04/26 10:45:33;;;;;;;1.10;0.97;;;17.80;62.80;;;;;;5207784;28;20208;-69
2022/04/26 10:48:26;;;;;;;0.90;0.90;;;17.80;62.80;;;;;;5208475;28;20574;-70
2022/04/26 10:51:35;;;;;;;0.70;0.70;;;17.80;62.80;;;;;;5209589;28;20213;-69
2022/04/26 10:55:03;;;;;;;1.00;0.90;;;17.80;62.80;;;;;;5210429;28;20356;-70
2022/04/26 10:57:57;;;;;;;0.80;0.80;;;17.80;62.80;;;;;;5210498;28;20189;-70
2022/04/26 11:00:49;;;;;;;0.80;0.77;;;17.80;62.80;;;;;;5210831;28;20691;-70
2022/04/26 11:03:52;;;;;;;1.27;0.90;;;17.80;62.80;;;;;;5209690;28;20312;-69
2022/04/26 11:06:44;;;;;;;1.30;1.20;;;17.80;62.80;;;;;;5209374;28;20197;-70
2022/04/26 11:09:36;;;;;;;1.00;0.90;;;17.80;62.80;;;;;;5213255;28;20298;-69
2022/04/26 11:12:32;;;;;;;1.03;0.90;;;17.80;62.80;;;;;;5209563;28;20198;-70
2022/04/26 11:15:26;;;;;;;0.97;0.80;;;17.80;62.80;;;;;;5219464;28;20701;-70
2022/04/26 11:18:22;;;;;;;1.07;0.80;;;17.80;62.80;;;;;;5210519;28;20571;-70
2022/04/26 11:21:14;;;;;;;0.80;0.80;;;17.80;62.80;;;;;;5192175;28;20202;-69
2022/04/26 11:30:44;;;;;;;1.00;0.90;;;17.80;62.90;;;;;;5203510;28;20221;-70
2022/04/26 11:33:49;;;;;;;0.93;0.87;;;17.80;62.90;;;;;;5208705;28;20683;-69
2022/04/26 11:36:41;;;;;;;1.00;0.83;;;17.80;62.90;;;;;;5211683;28;20228;-69
2022/04/26 11:39:41;;;;;;;2.00;0.87;;;17.80;62.90;;;;;;5198733;28;20198;-70
2022/04/26 11:42:37;;;;;;;0.77;0.77;;;17.80;62.90;;;;;;5203827;28;20229;-67
2022/04/26 11:45:33;;;;;;;1.00;0.90;;;17.80;62.90;;;;;;5206025;28;20194;-67
2022/04/26 11:48:29;;;;;;;1.00;0.90;;;17.80;62.90;;;;;;5206126;28;20219;-70
2022/04/26 11:51:21;;;;;;;1.00;0.90;;;17.80;62.90;;;;;;5205831;28;20226;-72
2022/04/26 11:54:34;;;;;;;1.10;0.90;;;17.80;62.90;;;;;;5203723;28;20260;-69
2022/04/26 11:57:27;;;;;;;0.80;0.80;;;17.80;62.90;;;;;;5203826;28;20231;-69
2022/04/26 12:00:22;;;;;;;0.70;0.70;;;17.80;62.90;;;;;;5211074;28;20654;-70
2022/04/26 12:03:14;;;;;;;0.97;0.90;;;17.80;62.90;;;;;;5205908;28;20210;-71
2022/04/26 12:06:09;;;;;;;1.00;0.90;;;17.80;63.00;;;;;;5204564;28;20233;-70
2022/04/26 12:09:04;;;;;;;2.30;0.90;;;17.80;63.00;;;;;;5188591;28;20221;-70
2022/04/26 12:12:04;;;;;;;1.47;1.00;;;17.80;63.00;;;;;;5203069;28;20328;-70
2022/04/26 12:14:56;;;;;;;1.00;0.90;;;17.80;63.60;;;;;;5190308;28;20245;-70
2022/04/26 12:18:10;;;;;;;1.17;1.07;;;17.80;63.10;;;;;;5205849;28;20255;-69
2022/04/26 12:21:03;;;;;;;2.17;1.00;;;17.80;63.10;;;;;;5204206;28;20194;-70
2022/04/26 12:24:13;;;;;;;1.20;1.10;;;17.80;63.20;;;;;;5209056;28;20761;-70
2022/04/26 12:27:12;;;;;;;1.20;1.10;;;17.80;63.10;;;;;;5204058;28;20568;-70
2022/04/26 12:30:11;;;;;;;1.30;1.10;;;17.80;63.20;;;;;;5205224;28;20214;-70
2022/04/26 12:33:07;;;;;;;2.40;1.23;;;17.80;63.20;;;;;;5191140;28;20201;-70
2022/04/26 12:36:02;;;;;;;1.17;1.03;;;17.80;63.20;;;;;;5204858;28;20677;-70
2022/04/26 12:38:55;;;;;;;2.43;1.30;;;17.80;63.20;;;;;;5204993;28;20324;-70
2022/04/26 12:41:48;;;;;;;1.50;1.23;;;17.80;63.20;;;;;;5202655;28;20198;-70
2022/04/26 12:44:50;;;;;;;1.47;1.37;;;17.80;63.20;;;;;;5205902;28;20213;-70
2022/04/26 12:50:54;;;;;;;1.00;1.00;;;17.80;63.30;;;;;;5195573;28;20555;-70
2022/04/26 12:53:46;;;;;;;1.10;1.00;;;17.80;63.30;;;;;;5203753;28;20293;-70
2022/04/26 12:56:40;;;;;;;1.13;1.00;;;17.80;63.30;;;;;;5204475;28;20697;-70
2022/04/26 12:59:35;;;;;;;1.63;1.20;;;17.80;63.30;;;;;;5204296;28;20190;-70
2022/04/26 13:02:27;;;;;;;1.30;1.10;;;17.90;63.40;;;;;;5204539;28;20197;-71
2022/04/26 13:05:21;;;;;;;1.33;1.23;;;17.80;63.40;;;;;;5204324;28;20317;-72
2022/04/26 13:08:16;;;;;;;1.50;1.10;;;17.80;63.30;;;;;;5200814;28;20302;-74
2022/04/26 13:11:08;;;;;;;1.10;0.90;;;17.90;63.40;;;;;;5182319;28;20202;-70
2022/04/26 13:14:01;;;;;;;1.57;1.30;;;17.90;63.40;;;;;;5195807;28;20300;-70
2022/04/26 13:16:53;;;;;;;1.30;1.20;;;17.90;63.50;;;;;;5202497;28;20320;-71
2022/04/26 13:19:45;;;;;;;1.57;1.30;;;17.80;63.30;;;;;;5203477;28;20249;-70
2022/04/26 13:22:38;;;;;;;1.20;1.10;;;17.90;63.40;;;;;;5188740;28;20275;-68
2022/04/26 13:25:32;;;;;;;1.40;1.30;;;17.80;63.30;;;;;;5200501;28;20194;-71
2022/04/26 13:28:24;;;;;;;1.30;1.20;;;17.90;63.50;;;;;;5194213;23;20301;-60
2022/04/26 13:31:16;;;;;;;2.20;1.40;;;17.80;63.50;;;;;;5159362;28;20199;-61
2022/04/26 13:34:10;;;;;;;1.60;1.30;;;17.90;63.50;;;;;;5163712;28;20203;-60
2022/04/26 13:37:02;;;;;;;1.30;1.20;;;17.80;63.40;;;;;;5162916;28;20274;-60
2022/04/26 13:39:58;;;;;;;1.90;1.33;;;17.80;63.30;;;;;;5161755;28;20305;-61
2022/04/26 13:42:52;;;;;;;1.77;1.20;;;17.80;63.30;;;;;;5163286;28;20206;-61
2022/04/26 13:45:44;;;;;;;1.47;1.30;;;17.80;63.30;;;;;;5163396;28;20202;-60
2022/04/26 13:48:36;;;;;;;1.87;1.33;;;17.80;63.30;;;;;;5161714;28;20277;-60
2022/04/26 13:51:29;;;;;;;2.00;1.40;;;17.80;63.30;;;;;;5160077;28;20618;-62
2022/04/26 13:54:21;;;;;;;3.47;1.43;;;17.80;63.30;;;;;;5160477;28;20254;-62
2022/04/26 13:57:14;;;;;;;1.60;1.33;;;17.90;63.30;;;;;;5163588;28;20685;-62
2022/04/26 14:00:11;;;;;;;3.80;1.57;;;17.90;63.30;;;;;;5162656;28;20187;-62
2022/04/26 14:03:03;;;;;;;2.00;1.30;;;17.80;63.20;;;;;;5163176;28;20606;-63
2022/04/26 14:05:55;;;;;;;1.47;1.20;;;17.90;63.30;;;;;;5163348;28;20195;-63
2022/04/26 14:08:48;;;;;;;2.00;1.47;;;17.80;63.20;;;;;;5170127;28;20692;-62
2022/04/26 14:11:41;;;;;;;1.60;1.50;;;17.80;63.20;;;;;;5145246;28;20199;-62
2022/04/26 14:24:04;;;;;;;1.80;1.50;;;17.90;63.30;;;;;;5163137;28;20733;-62
2022/04/26 14:26:57;;;;;;;1.87;1.50;;;17.90;63.20;;;;;;5162810;28;20273;-62
2022/04/26 14:29:50;;;;;;;2.37;1.43;;;17.90;63.20;;;;;;5163124;28;20211;-63
2022/04/26 14:32:44;;;;;;;2.10;1.37;;;17.90;63.10;;;;;;5161864;28;20199;-57
2022/04/26 14:35:36;;;;;;;1.83;1.37;;;17.80;63.10;;;;;;5162509;28;20199;-58
2022/04/26 14:38:28;;;;;;;1.57;1.33;;;17.90;63.10;;;;;;5162940;28;20705;-60
2022/04/26 14:41:20;;;;;;;3.33;1.20;;;17.80;63.00;;;;;;5163178;28;20195;-59
2022/04/26 14:44:12;;;;;;;1.43;1.20;;;17.80;63.10;;;;;;5163192;28;20195;-59
2022/04/26 14:47:06;;;;;;;1.40;1.30;;;17.80;63.20;;;;;;5163616;28;20227;-60
2022/04/26 14:50:04;;;;;;;1.77;1.40;;;17.80;63.20;;;;;;5143007;28;20313;-60
2022/04/26 14:52:56;;;;;;;1.23;1.13;;;17.80;63.30;;;;;;5163160;28;20623;-60
2022/04/26 14:55:49;;;;;;;1.40;1.30;;;17.80;63.40;;;;;;5163387;28;20591;-60
2022/04/26 14:58:41;;;;;;;1.27;1.17;;;17.80;63.40;;;;;;5162818;28;20226;-58
2022/04/26 15:01:33;;;;;;;1.97;1.50;;;17.80;63.50;;;;;;5164491;28;20227;-61
2022/04/26 15:04:26;;;;;;;1.43;1.20;;;17.80;63.50;;;;;;5166589;28;20218;-61
2022/04/26 15:07:20;;;;;;;1.53;1.13;;;17.80;63.50;;;;;;5166885;28;20691;-60
2022/04/26 15:10:11;;;;;;;1.60;1.10;;;17.80;63.60;;;;;;5165810;28;20219;-59
2022/04/26 15:19:22;;;;;;;1.73;1.20;;;17.70;63.70;;;;;;5165818;28;20764;-60
2022/04/26 15:22:14;;;;;;;1.97;1.33;;;17.70;63.70;;;;;;5165819;28;20281;-60
2022/04/26 15:25:09;;;;;;;1.67;1.33;;;17.70;63.70;;;;;;5164236;28;20194;-60
2022/04/26 15:28:01;;;;;;;1.47;1.20;;;17.70;63.80;;;;;;5164498;28;20225;-60
2022/04/26 15:30:54;;;;;;;1.60;1.03;;;17.70;63.80;;;;;;5166001;28;20215;-60
2022/04/26 15:33:47;;;;;;;1.83;1.20;;;17.70;63.70;;;;;;5166431;28;20202;-60
2022/04/26 15:36:41;;;;;;;1.17;1.07;;;17.70;63.80;;;;;;5165747;28;20590;-60
2022/04/26 15:39:33;;;;;;;1.27;1.17;;;17.70;63.70;;;;;;5166213;28;20207;-60
2022/04/26 15:42:27;;;;;;;1.50;1.40;;;17.80;63.80;;;;;;5165570;28;20202;-61
2022/04/26 15:45:19;;;;;;;2.37;1.33;;;17.70;63.80;;;;;;5160323;28;20685;-60
2022/04/26 15:48:11;;;;;;;1.63;1.30;;;17.70;63.80;;;;;;5165951;28;20219;-60
2022/04/26 15:51:03;;;;;;;1.83;1.10;;;17.70;63.80;;;;;;5165142;28;20218;-60
2022/04/26 15:53:55;;;;;;;1.43;1.33;;;17.70;63.80;;;;;;5165420;28;20237;-60
2022/04/26 15:56:47;;;;;;;2.70;1.27;;;17.70;63.80;;;;;;5165848;28;20195;-60
2022/04/26 15:59:41;;;;;;;4.63;1.50;;;17.60;63.70;;;;;;5164644;28;20226;-60
2022/04/26 16:02:33;;;;;;;1.40;1.20;;;17.70;63.80;;;;;;5165179;28;20203;-60
2022/04/26 16:05:26;;;;;;;1.27;1.10;;;17.70;63.80;;;;;;5166356;28;20663;-59
2022/04/26 16:08:18;;;;;;;1.40;1.13;;;17.70;63.80;;;;;;5165470;28;20284;-60
2022/04/26 16:20:41;;;;;;;1.53;1.10;;;17.70;63.80;;;;;;5165205;28;20191;-61
2022/04/26 16:23:33;;;;;;;1.67;1.30;;;17.70;63.70;;;;;;5166623;28;20694;-61
2022/04/26 16:26:27;;;;;;;1.40;1.30;;;17.70;63.80;;;;;;5169048;28;20741;-60
2022/04/26 16:29:19;;;;;;;2.23;1.30;;;17.70;63.80;;;;;;5158287;28;20251;-60
2022/04/26 16:32:11;;;;;;;1.40;1.20;;;17.60;63.60;;;;;;5165306;28;20195;-59
2022/04/26 16:35:05;;;;;;;2.03;1.30;;;17.70;63.70;;;;;;5166120;28;20195;-59
2022/04/26 16:37:57;;;;;;;2.50;1.40;;;17.70;63.80;;;;;;5164679;28;20706;-61
2022/04/26 16:40:50;;;;;;;1.00;1.00;;;17.60;63.70;;;;;;5165443;28;20199;-59
2022/04/26 16:43:43;;;;;;;1.43;1.23;;;17.70;63.80;;;;;;5164440;28;20261;-59
2022/04/26 16:46:36;;;;;;;1.30;1.00;;;17.70;63.80;;;;;;5164835;28;20210;-60
2022/04/26 16:49:30;;;;;;;2.67;1.37;;;17.70;63.70;;;;;;5163977;28;20219;-60
2022/04/26 16:52:23;;;;;;;1.47;1.10;;;17.70;63.70;;;;;;5169714;28;20226;-60
2022/04/26 16:55:15;;;;;;;1.10;1.03;;;17.70;63.70;;;;;;5184666;28;20205;-59
2022/04/26 16:58:08;;;;;;;1.43;1.00;;;17.70;63.80;;;;;;5184802;28;20214;-61
2022/04/26 17:01:00;;;;;;;1.27;1.13;;;17.70;63.80;;;;;;5171234;28;20282;-60
2022/04/26 17:03:52;;;;;;;1.43;1.20;;;17.60;63.70;;;;;;5164269;28;20206;-59
2022/04/26 17:06:45;;;;;;;1.20;1.10;;;17.70;63.80;;;;;;5164197;28;20222;-59
2022/04/26 17:09:38;;;;;;;2.17;1.20;;;17.60;63.80;;;;;;5176893;28;20222;-60
2022/04/26 17:12:30;;;;;;;1.30;1.20;;;17.60;63.80;;;;;;5185221;28;20573;-61
2022/04/26 17:15:23;;;;;;;1.47;1.37;;;17.70;63.90;;;;;;5185770;28;20662;-60
2022/04/26 17:18:15;;;;;;;1.47;1.37;;;17.70;63.90;;;;;;5144920;28;20255;-60
2022/04/26 17:21:08;;;;;;;3.60;1.40;;;17.70;63.90;;;;;;5159230;28;20681;-60
2022/04/26 17:24:00;;;;;;;1.50;1.33;;;17.70;63.90;;;;;;5164380;28;20697;-60
2022/04/26 17:26:56;;;;;;;1.60;1.30;;;17.70;63.90;;;;;;5163853;28;20560;-60
2022/04/26 17:29:48;;;;;;;2.13;1.27;;;17.70;63.90;;;;;;5145233;28;20216;-60
2022/04/26 17:32:40;;;;;;;1.20;1.10;;;17.60;63.90;;;;;;5144207;28;20274;-59
2022/04/26 17:35:33;;;;;;;1.73;1.20;;;17.70;63.90;;;;;;5143681;28;20196;-60
2022/04/26 17:38:25;;;;;;;1.03;0.93;;;17.60;63.90;;;;;;5144251;28;20588;-60
2022/04/26 17:41:17;;;;;;;2.13;1.77;;;17.70;63.80;;;;;;5143195;28;20200;-60
2022/04/26 17:44:11;;;;;;;1.83;1.10;;;17.60;63.70;;;;;;5144567;28;20199;-59
2022/04/26 17:47:06;;;;;;;1.60;1.10;;;17.60;63.80;;;;;;5144701;28;20679;-60
2022/04/26 17:49:59;;;;;;;1.53;1.23;;;17.70;63.80;;;;;;5144145;28;20212;-60
2022/04/26 17:59:21;;;;;;;1.57;1.23;;;17.70;64.00;;;;;;5099472;28;20730;-60
2022/04/26 18:02:13;;;;;;;1.30;1.20;;;17.70;63.80;;;;;;5143581;28;20507;-60
2022/04/26 18:05:05;;;;;;;1.50;1.17;;;17.70;63.60;;;;;;5155219;28;20210;-61
2022/04/26 18:07:57;;;;;;;1.45;1.30;;;17.70;63.70;;;;;;5139556;28;20658;-64
2022/04/26 18:10:50;;;;;;;1.83;1.30;;;17.80;63.60;;;;;;5140046;28;20212;-64
2022/04/26 18:13:43;;;;;;;2.03;1.40;;;17.80;63.50;;;;;;5144274;28;20200;-64
2022/04/26 18:16:36;;;;;;;1.17;1.07;;;17.80;63.40;;;;;;5144034;28;20578;-64
2022/04/26 18:19:28;;;;;;;1.70;1.60;;;17.80;63.50;;;;;;5143882;28;20219;-64
2022/04/26 18:22:20;;;;;;;1.50;1.13;;;17.80;63.50;;;;;;5142792;28;20204;-64
2022/04/26 18:25:12;;;;;;;2.40;1.50;;;17.70;63.50;;;;;;5144065;28;20188;-64
2022/04/26 18:28:05;;;;;;;1.87;1.10;;;17.70;64.10;;;;;;5149926;28;20223;-64
2022/04/26 18:30:57;;;;;;;1.77;1.53;;;17.70;63.60;;;;;;5149477;28;20281;-64
2022/04/26 18:33:51;;;;;;;1.60;1.37;;;17.70;63.60;;;;;;5143496;28;20278;-64
2022/04/26 18:36:43;;;;;;;1.27;1.10;;;17.70;63.60;;;;;;5148185;28;20278;-64
2022/04/26 18:39:35;;;;;;;1.00;0.90;;;17.70;63.70;;;;;;5146291;28;20325;-64
2022/04/26 18:42:27;;;;;;;1.03;0.97;;;17.70;63.70;;;;;;5146748;28;20199;-64
2022/04/26 18:45:22;;;;;;;1.50;1.17;;;17.70;63.70;;;;;;5147890;28;20200;-64
2022/04/26 18:48:15;;;;;;;1.83;1.07;;;17.70;63.70;;;;;;5164853;28;20230;-64
2022/04/26 18:51:09;;;;;;;1.57;1.20;;;17.80;63.80;;;;;;5158258;28;20268;-64
2022/04/26 18:54:01;;;;;;;1.13;1.00;;;17.70;63.80;;;;;;5146297;28;20253;-64
2022/04/26 18:56:54;;;;;;;1.40;1.27;;;17.70;63.80;;;;;;5134504;28;20302;-64
2022/04/26 18:59:46;;;;;;;1.23;1.13;;;17.70;63.80;;;;;;5147533;28;20671;-64
2022/04/26 19:02:38;;;;;;;1.90;1.20;;;17.80;63.90;;;;;;5147993;28;20192;-64
2022/04/26 19:05:31;;;;;;;1.20;1.03;;;17.80;63.90;;;;;;5147462;28;20203;-64
2022/04/26 19:08:25;;;;;;;3.10;1.47;;;17.80;63.90;;;;;;5146789;28;20223;-63
2022/04/26 19:14:27;;;;;;;1.13;1.03;;;17.80;63.90;;;;;;5146272;28;20267;-63
2022/04/26 19:17:21;;;;;;;1.27;1.10;;;17.70;63.80;;;;;;5146659;28;20192;-63
2022/04/26 19:20:13;;;;;;;2.10;1.33;;;17.70;63.80;;;;;;5146605;28;20192;-63
2022/04/26 19:23:06;;;;;;;2.20;1.30;;;17.80;63.80;;;;;;5138142;28;20223;-63
2022/04/26 19:26:00;;;;;;;1.50;1.20;;;17.80;63.80;;;;;;5145123;28;20207;-63
2022/04/26 19:28:52;;;;;;;2.23;1.27;;;17.80;63.80;;;;;;5156714;28;20633;-63
2022/04/26 19:31:45;;;;;;;1.97;1.20;;;17.80;63.80;;;;;;5164222;28;20207;-64
2022/04/26 19:34:37;;;;;;;1.33;1.00;;;17.80;63.80;;;;;;5164066;28;20199;-63
2022/04/26 19:37:29;;;;;;;1.80;1.20;;;17.80;63.70;;;;;;5163188;28;20210;-63
2022/04/26 19:40:21;;;;;;;1.20;1.10;;;17.80;63.80;;;;;;5143465;28;20196;-63